createdAt,value
2018-06-03T00:00:00.457Z,940.19
2018-06-03T00:01:00.457Z,940.22
2018-06-03T00:02:00.460Z,940.24
2018-06-03T00:03:00.464Z,940.22
2018-06-03T00:04:00.464Z,940.20
2018-06-03T00:05:00.463Z,940.23
2018-06-03T00:06:00.466Z,940.23
2018-06-03T00:07:00.467Z,940.24
2018-06-03T00:08:00.473Z,940.21
2018-06-03T00:09:00.470Z,940.24
2018-06-03T00:10:00.472Z,940.22
2018-06-03T00:11:00.475Z,940.20
2018-06-03T00:12:00.479Z,940.17
2018-06-03T00:13:00.479Z,940.18
2018-06-03T00:14:00.479Z,940.13
2018-06-03T00:15:00.479Z,940.14
2018-06-03T00:16:00.480Z,940.15
2018-06-03T00:17:00.480Z,940.14
2018-06-03T00:18:00.483Z,940.13
2018-06-03T00:19:00.488Z,940.11
2018-06-03T00:20:00.486Z,940.09
2018-06-03T00:21:00.486Z,940.12
2018-06-03T00:22:00.488Z,940.14
2018-06-03T00:23:00.494Z,940.09
2018-06-03T00:24:00.492Z,940.17
2018-06-03T00:25:00.493Z,940.16
2018-06-03T00:26:00.494Z,940.16
2018-06-03T00:27:00.496Z,940.16
2018-06-03T00:28:00.497Z,940.20
2018-06-03T00:29:00.502Z,940.19
2018-06-03T00:30:00.501Z,940.16
2018-06-03T00:31:00.501Z,940.17
2018-06-03T00:32:00.505Z,940.19
2018-06-03T00:33:00.503Z,940.17
2018-06-03T00:34:00.506Z,940.19
2018-06-03T00:35:00.507Z,940.14
2018-06-03T00:36:00.509Z,940.14
2018-06-03T00:37:00.508Z,940.11
2018-06-03T00:38:00.510Z,940.15
2018-06-03T00:39:00.512Z,940.14
2018-06-03T00:40:00.512Z,940.14
2018-06-03T00:41:00.514Z,940.16
2018-06-03T00:42:00.518Z,940.14
2018-06-03T00:43:00.518Z,940.08
2018-06-03T00:44:00.520Z,940.10
2018-06-03T00:45:00.520Z,940.11
2018-06-03T00:46:00.521Z,940.11
2018-06-03T00:47:00.524Z,940.11
2018-06-03T00:48:00.524Z,940.10
2018-06-03T00:49:00.527Z,940.07
2018-06-03T00:50:00.528Z,940.04
2018-06-03T00:51:00.529Z,940.06
2018-06-03T00:52:00.531Z,940.02
2018-06-03T00:53:00.530Z,939.99
2018-06-03T00:54:00.535Z,939.98
2018-06-03T00:55:00.533Z,939.98
2018-06-03T00:56:00.534Z,939.95
2018-06-03T00:57:00.536Z,939.98
2018-06-03T00:58:00.537Z,939.96
2018-06-03T00:59:00.540Z,939.96
2018-06-03T01:00:00.540Z,939.95
2018-06-03T01:01:00.541Z,939.96
2018-06-03T01:02:00.542Z,939.95
2018-06-03T01:03:00.544Z,939.93
2018-06-03T01:04:00.546Z,939.94
2018-06-03T01:05:00.545Z,939.95
2018-06-03T01:06:00.548Z,939.92
2018-06-03T01:07:00.549Z,939.91
2018-06-03T01:08:00.550Z,939.90
2018-06-03T01:09:00.551Z,939.91
2018-06-03T01:10:00.553Z,939.88
2018-06-03T01:11:00.554Z,939.86
2018-06-03T01:12:00.556Z,939.88
2018-06-03T01:13:00.555Z,939.84
2018-06-03T01:14:00.558Z,939.84
2018-06-03T01:15:00.558Z,939.83
2018-06-03T01:16:00.561Z,939.85
2018-06-03T01:17:00.561Z,939.86
2018-06-03T01:18:00.562Z,939.87
2018-06-03T01:19:00.564Z,939.88
2018-06-03T01:20:00.567Z,939.87
2018-06-03T01:21:00.565Z,939.91
2018-06-03T01:22:00.569Z,939.91
2018-06-03T01:23:00.569Z,939.91
2018-06-03T01:24:00.570Z,939.89
2018-06-03T01:25:00.574Z,939.88
2018-06-03T01:26:00.573Z,939.89
2018-06-03T01:27:00.573Z,939.88
2018-06-03T01:28:00.575Z,939.86
2018-06-03T01:29:00.575Z,939.84
2018-06-03T01:30:00.579Z,939.84
2018-06-03T01:31:00.578Z,939.85
2018-06-03T01:32:00.581Z,939.84
2018-06-03T01:33:00.580Z,939.80
2018-06-03T01:34:00.581Z,939.77
2018-06-03T01:35:00.587Z,939.76
2018-06-03T01:36:00.585Z,939.76
2018-06-03T01:37:00.586Z,939.76
2018-06-03T01:38:00.586Z,939.77
2018-06-03T01:39:00.588Z,939.78
2018-06-03T01:40:00.590Z,939.82
2018-06-03T01:41:00.590Z,939.79
2018-06-03T01:42:00.592Z,939.79
2018-06-03T01:43:00.593Z,939.80
2018-06-03T01:44:00.594Z,939.79
2018-06-03T01:45:00.594Z,939.79
2018-06-03T01:46:00.595Z,939.81
2018-06-03T01:47:00.598Z,939.79
2018-06-03T01:48:00.597Z,939.82
2018-06-03T01:49:00.598Z,939.77
2018-06-03T01:50:00.615Z,939.74
2018-06-03T01:51:00.601Z,939.75
2018-06-03T01:52:00.602Z,939.72
2018-06-03T01:53:00.603Z,939.72
2018-06-03T01:54:00.605Z,939.68
2018-06-03T01:55:00.605Z,939.70
2018-06-03T01:56:00.614Z,939.73
2018-06-03T01:57:00.607Z,939.68
2018-06-03T01:58:00.609Z,939.68
2018-06-03T01:59:00.609Z,939.67
2018-06-03T02:00:00.611Z,939.67
2018-06-03T02:01:00.611Z,939.64
2018-06-03T02:02:00.612Z,939.62
2018-06-03T02:03:00.614Z,939.65
2018-06-03T02:04:00.615Z,939.60
2018-06-03T02:05:00.616Z,939.62
2018-06-03T02:06:00.619Z,939.58
2018-06-03T02:07:00.617Z,939.58
2018-06-03T02:08:00.618Z,939.60
2018-06-03T02:09:00.619Z,939.57
2018-06-03T02:10:00.619Z,939.59
2018-06-03T02:11:00.622Z,939.53
2018-06-03T02:12:00.623Z,939.52
2018-06-03T02:13:00.624Z,939.54
2018-06-03T02:14:00.625Z,939.50
2018-06-03T02:15:00.626Z,939.52
2018-06-03T02:16:00.628Z,939.55
2018-06-03T02:17:00.627Z,939.50
2018-06-03T02:18:00.631Z,939.52
2018-06-03T02:19:00.631Z,939.51
2018-06-03T02:20:00.631Z,939.52
2018-06-03T02:21:00.630Z,939.49
2018-06-03T02:22:00.634Z,939.51
2018-06-03T02:23:00.632Z,939.49
2018-06-03T02:24:00.633Z,939.50
2018-06-03T02:25:00.634Z,939.50
2018-06-03T02:26:00.636Z,939.49
2018-06-03T02:27:00.637Z,939.46
2018-06-03T02:28:00.638Z,939.43
2018-06-03T02:29:00.640Z,939.45
2018-06-03T02:30:00.639Z,939.40
2018-06-03T02:31:00.640Z,939.45
2018-06-03T02:32:00.641Z,939.42
2018-06-03T02:33:00.641Z,939.41
2018-06-03T02:34:00.643Z,939.41
2018-06-03T02:35:00.643Z,939.44
2018-06-03T02:36:00.648Z,939.40
2018-06-03T02:37:00.646Z,939.39
2018-06-03T02:38:00.645Z,939.40
2018-06-03T02:39:00.648Z,939.41
2018-06-03T02:40:00.649Z,939.44
2018-06-03T02:41:00.648Z,939.45
2018-06-03T02:42:00.649Z,939.43
2018-06-03T02:43:00.651Z,939.42
2018-06-03T02:44:00.651Z,939.40
2018-06-03T02:45:00.651Z,939.37
2018-06-03T02:46:00.652Z,939.42
2018-06-03T02:47:00.653Z,939.43
2018-06-03T02:48:00.655Z,939.40
2018-06-03T02:49:00.655Z,939.46
2018-06-03T02:50:00.656Z,939.43
2018-06-03T02:51:00.657Z,939.48
2018-06-03T02:52:00.661Z,939.44
2018-06-03T02:53:00.657Z,939.45
2018-06-03T02:54:00.663Z,939.41
2018-06-03T02:55:00.660Z,939.39
2018-06-03T02:56:00.665Z,939.37
2018-06-03T02:57:00.667Z,939.34
2018-06-03T02:58:00.662Z,939.35
2018-06-03T02:59:00.662Z,939.36
2018-06-03T03:00:00.664Z,939.36
2018-06-03T03:01:00.664Z,939.32
2018-06-03T03:02:00.666Z,939.32
2018-06-03T03:03:00.666Z,939.31
2018-06-03T03:04:00.667Z,939.29
2018-06-03T03:05:00.666Z,939.31
2018-06-03T03:06:00.671Z,939.32
2018-06-03T03:07:00.668Z,939.36
2018-06-03T03:08:00.669Z,939.30
2018-06-03T03:09:00.670Z,939.33
2018-06-03T03:10:00.670Z,939.32
2018-06-03T03:11:00.672Z,939.36
2018-06-03T03:12:00.671Z,939.33
2018-06-03T03:13:00.671Z,939.36
2018-06-03T03:14:00.673Z,939.34
2018-06-03T03:15:00.678Z,939.34
2018-06-03T03:16:00.685Z,939.33
2018-06-03T03:17:00.675Z,939.31
2018-06-03T03:18:00.676Z,939.29
2018-06-03T03:19:00.677Z,939.32
2018-06-03T03:20:00.678Z,939.28
2018-06-03T03:21:00.678Z,939.30
2018-06-03T03:22:00.678Z,939.34
2018-06-03T03:23:00.679Z,939.33
2018-06-03T03:24:00.680Z,939.34
2018-06-03T03:25:00.679Z,939.36
2018-06-03T03:26:00.682Z,939.36
2018-06-03T03:27:00.686Z,939.37
2018-06-03T03:28:00.683Z,939.36
2018-06-03T03:29:00.683Z,939.41
2018-06-03T03:30:00.685Z,939.44
2018-06-03T03:31:00.683Z,939.48
2018-06-03T03:32:00.686Z,939.47
2018-06-03T03:33:00.688Z,939.46
2018-06-03T03:34:00.690Z,939.49
2018-06-03T03:35:00.686Z,939.49
2018-06-03T03:36:00.688Z,939.47
2018-06-03T03:37:00.687Z,939.50
2018-06-03T03:38:00.689Z,939.48
2018-06-03T03:39:00.689Z,939.47
2018-06-03T03:40:00.691Z,939.47
2018-06-03T03:41:00.691Z,939.46
2018-06-03T03:42:00.690Z,939.47
2018-06-03T03:43:00.693Z,939.51
2018-06-03T03:44:00.693Z,939.52
2018-06-03T03:45:00.692Z,939.53
2018-06-03T03:46:00.694Z,939.50
2018-06-03T03:47:00.697Z,939.50
2018-06-03T03:48:00.695Z,939.50
2018-06-03T03:49:00.694Z,939.50
2018-06-03T03:50:00.698Z,939.48
2018-06-03T03:51:00.697Z,939.49
2018-06-03T03:52:00.697Z,939.49
2018-06-03T03:53:00.698Z,939.50
2018-06-03T03:54:00.701Z,939.48
2018-06-03T03:55:00.699Z,939.52
2018-06-03T03:56:00.703Z,939.50
2018-06-03T03:57:00.698Z,939.52
2018-06-03T03:58:00.701Z,939.50
2018-06-03T03:59:00.700Z,939.51
2018-06-03T04:00:00.702Z,939.51
2018-06-03T04:01:00.702Z,939.49
2018-06-03T04:02:00.707Z,939.51
2018-06-03T04:03:00.703Z,939.48
2018-06-03T04:04:00.704Z,939.51
2018-06-03T04:05:00.704Z,939.51
2018-06-03T04:06:00.704Z,939.52
2018-06-03T04:07:00.705Z,939.55
2018-06-03T04:08:00.706Z,939.56
2018-06-03T04:09:00.707Z,939.52
2018-06-03T04:10:00.705Z,939.54
2018-06-03T04:11:00.707Z,939.55
2018-06-03T04:12:00.709Z,939.55
2018-06-03T04:13:00.708Z,939.53
2018-06-03T04:14:00.711Z,939.55
2018-06-03T04:15:00.710Z,939.57
2018-06-03T04:16:00.711Z,939.53
2018-06-03T04:17:00.710Z,939.55
2018-06-03T04:18:00.710Z,939.56
2018-06-03T04:19:00.712Z,939.57
2018-06-03T04:20:00.714Z,939.58
2018-06-03T04:21:00.712Z,939.56
2018-06-03T04:22:00.713Z,939.61
2018-06-03T04:23:00.716Z,939.61
2018-06-03T04:24:00.715Z,939.63
2018-06-03T04:25:00.715Z,939.62
2018-06-03T04:26:00.716Z,939.62
2018-06-03T04:27:00.716Z,939.59
2018-06-03T04:28:00.717Z,939.60
2018-06-03T04:29:00.716Z,939.57
2018-06-03T04:30:00.717Z,939.57
2018-06-03T04:31:00.719Z,939.56
2018-06-03T04:32:00.719Z,939.54
2018-06-03T04:33:00.720Z,939.54
2018-06-03T04:34:00.719Z,939.52
2018-06-03T04:35:00.721Z,939.54
2018-06-03T04:36:00.722Z,939.53
2018-06-03T04:37:00.721Z,939.54
2018-06-03T04:38:00.723Z,939.52
2018-06-03T04:39:00.723Z,939.58
2018-06-03T04:40:00.724Z,939.55
2018-06-03T04:41:00.725Z,939.57
2018-06-03T04:42:00.725Z,939.56
2018-06-03T04:43:00.729Z,939.58
2018-06-03T04:44:00.728Z,939.57
2018-06-03T04:45:00.726Z,939.58
2018-06-03T04:46:00.727Z,939.60
2018-06-03T04:47:00.728Z,939.58
2018-06-03T04:48:00.729Z,939.59
2018-06-03T04:49:00.730Z,939.61
2018-06-03T04:50:00.731Z,939.58
2018-06-03T04:51:00.732Z,939.60
2018-06-03T04:52:00.733Z,939.59
2018-06-03T04:53:00.736Z,939.56
2018-06-03T04:54:00.738Z,939.56
2018-06-03T04:55:00.771Z,939.55
2018-06-03T04:56:00.735Z,939.56
2018-06-03T04:57:00.735Z,939.55
2018-06-03T04:58:00.737Z,939.53
2018-06-03T04:59:00.738Z,939.52
2018-06-03T05:00:00.740Z,939.51
2018-06-03T05:01:00.741Z,939.55
2018-06-03T05:02:00.741Z,939.59
2018-06-03T05:03:00.741Z,939.59
2018-06-03T05:04:00.743Z,939.58
2018-06-03T05:05:00.743Z,939.61
2018-06-03T05:06:00.743Z,939.59
2018-06-03T05:07:00.746Z,939.60
2018-06-03T05:08:00.746Z,939.58
2018-06-03T05:09:00.746Z,939.59
2018-06-03T05:10:00.752Z,939.60
2018-06-03T05:11:00.748Z,939.64
2018-06-03T05:12:00.750Z,939.62
2018-06-03T05:13:00.750Z,939.62
2018-06-03T05:14:00.753Z,939.59
2018-06-03T05:15:00.753Z,939.59
2018-06-03T05:16:00.754Z,939.61
2018-06-03T05:17:00.755Z,939.60
2018-06-03T05:18:00.756Z,939.61
2018-06-03T05:19:00.758Z,939.65
2018-06-03T05:20:00.759Z,939.63
2018-06-03T05:21:00.759Z,939.66
2018-06-03T05:22:00.761Z,939.67
2018-06-03T05:23:00.763Z,939.70
2018-06-03T05:24:00.764Z,939.68
2018-06-03T05:25:00.764Z,939.71
2018-06-03T05:26:00.766Z,939.64
2018-06-03T05:27:00.772Z,939.72
2018-06-03T05:28:00.768Z,939.70
2018-06-03T05:29:00.770Z,939.69
2018-06-03T05:30:00.771Z,939.69
2018-06-03T05:31:00.772Z,939.67
2018-06-03T05:32:00.774Z,939.69
2018-06-03T05:33:00.775Z,939.67
2018-06-03T05:34:00.776Z,939.67
2018-06-03T05:35:00.776Z,939.69
2018-06-03T05:36:00.779Z,939.67
2018-06-03T05:37:00.780Z,939.67
2018-06-03T05:38:00.781Z,939.70
2018-06-03T05:39:00.784Z,939.70
2018-06-03T05:40:00.784Z,939.67
2018-06-03T05:41:00.786Z,939.68
2018-06-03T05:42:00.787Z,939.68
2018-06-03T05:43:00.789Z,939.68
2018-06-03T05:44:00.791Z,939.69
2018-06-03T05:45:00.791Z,939.68
2018-06-03T05:46:00.795Z,939.67
2018-06-03T05:47:00.794Z,939.67
2018-06-03T05:48:00.797Z,939.67
2018-06-03T05:49:00.797Z,939.70
2018-06-03T05:50:00.802Z,939.71
2018-06-03T05:51:00.801Z,939.72
2018-06-03T05:52:00.806Z,939.70
2018-06-03T05:53:00.807Z,939.71
2018-06-03T05:54:00.807Z,939.73
2018-06-03T05:55:00.808Z,939.77
2018-06-03T05:56:00.812Z,939.74
2018-06-03T05:57:00.812Z,939.75
2018-06-03T05:58:00.813Z,939.73
2018-06-03T05:59:00.817Z,939.77
2018-06-03T06:00:00.818Z,939.75
2018-06-03T06:01:00.820Z,939.75
2018-06-03T06:02:00.821Z,939.77
2018-06-03T06:03:00.825Z,939.79
2018-06-03T06:04:00.826Z,939.78
2018-06-03T06:05:00.828Z,939.80
2018-06-03T06:06:00.829Z,939.80
2018-06-03T06:07:00.831Z,939.80
2018-06-03T06:08:00.835Z,939.82
2018-06-03T06:09:00.858Z,939.82
2018-06-03T06:10:00.837Z,939.83
2018-06-03T06:11:00.842Z,939.84
2018-06-03T06:12:00.842Z,939.78
2018-06-03T06:13:00.846Z,939.79
2018-06-03T06:14:00.847Z,939.80
2018-06-03T06:15:00.848Z,939.82
2018-06-03T06:16:00.851Z,939.83
2018-06-03T06:17:00.852Z,939.82
2018-06-03T06:18:00.857Z,939.82
2018-06-03T06:19:00.859Z,939.83
2018-06-03T06:20:00.861Z,939.84
2018-06-03T06:21:00.866Z,939.83
2018-06-03T06:22:00.864Z,939.85
2018-06-03T06:23:00.872Z,939.81
2018-06-03T06:24:00.871Z,939.82
2018-06-03T06:25:00.872Z,939.83
2018-06-03T06:26:00.875Z,939.86
2018-06-03T06:27:00.878Z,939.83
2018-06-03T06:28:00.881Z,939.85
2018-06-03T06:29:00.883Z,939.85
2018-06-03T06:30:00.885Z,939.88
2018-06-03T06:31:00.885Z,939.90
2018-06-03T06:32:00.887Z,939.92
2018-06-03T06:33:00.891Z,939.95
2018-06-03T06:34:00.893Z,939.93
2018-06-03T06:35:00.897Z,939.93
2018-06-03T06:36:00.901Z,939.89
2018-06-03T06:37:00.902Z,939.93
2018-06-03T06:38:00.904Z,939.93
2018-06-03T06:39:00.907Z,939.91
2018-06-03T06:40:00.915Z,939.92
2018-06-03T06:41:00.914Z,939.89
2018-06-03T06:42:00.919Z,939.91
2018-06-03T06:43:00.920Z,939.94
2018-06-03T06:44:00.927Z,939.95
2018-06-03T06:45:00.927Z,939.90
2018-06-03T06:46:00.932Z,939.95
2018-06-03T06:47:00.933Z,939.97
2018-06-03T06:48:00.938Z,939.98
2018-06-03T06:49:00.940Z,939.97
2018-06-03T06:50:00.958Z,939.99
2018-06-03T06:51:00.953Z,940.01
2018-06-03T06:52:00.952Z,940.03
2018-06-03T06:53:00.954Z,940.01
2018-06-03T06:54:00.958Z,940.02
2018-06-03T06:55:00.963Z,940.03
2018-06-03T06:56:00.970Z,939.99
2018-06-03T06:57:00.970Z,940.00
2018-06-03T06:58:00.972Z,940.01
2018-06-03T06:59:00.977Z,939.96
2018-06-03T07:00:00.981Z,939.95
2018-06-03T07:01:00.984Z,939.95
2018-06-03T07:02:00.987Z,939.94
2018-06-03T07:03:00.991Z,939.93
2018-06-03T07:04:00.996Z,939.96
2018-06-03T07:05:00.998Z,939.95
2018-06-03T07:06:01.003Z,939.92
2018-06-03T07:07:01.008Z,939.94
2018-06-03T07:08:01.009Z,939.93
2018-06-03T07:09:01.013Z,939.93
2018-06-03T07:10:01.018Z,939.97
2018-06-03T07:11:01.021Z,939.95
2018-06-03T07:12:01.024Z,939.97
2018-06-03T07:13:01.030Z,939.97
2018-06-03T07:14:01.032Z,939.97
2018-06-03T07:15:01.036Z,939.93
2018-06-03T07:16:01.041Z,939.97
2018-06-03T07:17:01.043Z,939.94
2018-06-03T07:18:01.048Z,939.90
2018-06-03T07:19:01.055Z,939.93
2018-06-03T07:20:01.062Z,939.90
2018-06-03T07:21:01.059Z,939.92
2018-06-03T07:22:01.064Z,939.94
2018-06-03T07:23:01.068Z,939.98
2018-06-03T07:24:01.072Z,940.01
2018-06-03T07:25:01.079Z,940.04
2018-06-03T07:26:01.081Z,940.15
2018-06-03T07:27:01.087Z,940.16
2018-06-03T07:28:01.095Z,940.21
2018-06-03T07:29:01.098Z,940.26
2018-06-03T07:30:01.108Z,940.24
2018-06-03T07:31:01.112Z,940.25
2018-06-03T07:32:01.169Z,940.29
2018-06-03T07:33:01.125Z,940.37
2018-06-03T07:34:01.133Z,940.38
2018-06-03T07:35:01.142Z,940.43
2018-06-03T07:36:01.151Z,940.37
2018-06-03T07:37:01.159Z,940.25
2018-06-03T07:38:01.168Z,940.22
2018-06-03T07:39:01.181Z,940.14
2018-06-03T07:40:01.190Z,940.10
2018-06-03T07:41:01.198Z,940.10
2018-06-03T07:42:01.208Z,940.05
2018-06-03T07:43:01.219Z,940.09
2018-06-03T07:44:01.229Z,940.09
2018-06-03T07:45:01.241Z,940.07
2018-06-03T07:46:01.246Z,940.09
2018-06-03T07:47:01.265Z,940.05
2018-06-03T07:48:01.270Z,940.05
2018-06-03T07:49:01.287Z,939.98
2018-06-03T07:50:01.285Z,939.97
2018-06-03T07:51:01.295Z,940.03
2018-06-03T07:52:01.304Z,940.07
2018-06-03T07:53:01.316Z,940.11
2018-06-03T07:54:01.326Z,940.23
2018-06-03T07:55:01.334Z,940.19
2018-06-03T07:56:01.342Z,940.16
2018-06-03T07:57:01.351Z,940.20
2018-06-03T07:58:01.359Z,940.20
2018-06-03T07:59:01.370Z,940.23
2018-06-03T08:00:01.380Z,940.20
2018-06-03T08:01:01.393Z,940.19
2018-06-03T08:02:01.403Z,940.18
2018-06-03T08:03:01.416Z,940.16
2018-06-03T08:04:01.428Z,940.17
2018-06-03T08:05:01.440Z,940.16
2018-06-03T08:06:01.475Z,940.16
2018-06-03T08:07:01.466Z,940.17
2018-06-03T08:08:01.481Z,940.17
2018-06-03T08:09:01.494Z,940.15
2018-06-03T08:10:01.508Z,940.13
2018-06-03T08:11:01.523Z,940.13
2018-06-03T08:12:01.538Z,940.15
2018-06-03T08:13:01.550Z,940.19
2018-06-03T08:14:01.566Z,940.19
2018-06-03T08:15:01.583Z,940.20
2018-06-03T08:16:01.598Z,940.18
2018-06-03T08:17:01.611Z,940.15
2018-06-03T08:18:01.630Z,940.15
2018-06-03T08:19:01.641Z,940.13
2018-06-03T08:20:01.656Z,940.11
2018-06-03T08:21:01.673Z,940.09
2018-06-03T08:22:01.688Z,940.08
2018-06-03T08:23:01.704Z,940.08
2018-06-03T08:24:01.719Z,940.09
2018-06-03T08:25:01.735Z,940.12
2018-06-03T08:26:01.751Z,940.08
2018-06-03T08:27:01.766Z,940.11
2018-06-03T08:28:01.783Z,940.09
2018-06-03T08:29:01.798Z,940.13
2018-06-03T08:30:01.812Z,940.15
2018-06-03T08:31:01.829Z,940.11
2018-06-03T08:32:01.845Z,940.13
2018-06-03T08:33:01.865Z,940.07
2018-06-03T08:34:01.874Z,940.07
2018-06-03T08:35:01.892Z,940.04
2018-06-03T08:36:01.908Z,940.03
2018-06-03T08:37:01.924Z,940.08
2018-06-03T08:38:01.938Z,940.06
2018-06-03T08:39:01.957Z,940.12
2018-06-03T08:40:01.973Z,940.16
2018-06-03T08:41:01.985Z,940.13
2018-06-03T08:42:02.003Z,940.14
2018-06-03T08:43:02.018Z,940.16
2018-06-03T08:44:02.035Z,940.17
2018-06-03T08:45:02.051Z,940.13
2018-06-03T08:46:02.066Z,940.13
2018-06-03T08:47:02.083Z,940.14
2018-06-03T08:48:02.098Z,940.15
2018-06-03T08:49:02.115Z,940.15
2018-06-03T08:50:02.131Z,940.17
2018-06-03T08:51:02.145Z,940.16
2018-06-03T08:52:02.166Z,940.17
2018-06-03T08:53:02.177Z,940.17
2018-06-03T08:54:02.194Z,940.16
2018-06-03T08:55:02.211Z,940.13
2018-06-03T08:56:02.225Z,940.16
2018-06-03T08:57:02.241Z,940.16
2018-06-03T08:58:02.260Z,940.16
2018-06-03T08:59:02.275Z,940.11
2018-06-03T09:00:02.292Z,940.11
2018-06-03T09:01:02.308Z,940.10
2018-06-03T09:02:02.328Z,940.06
2018-06-03T09:03:02.339Z,940.03
2018-06-03T09:04:02.357Z,940.07
2018-06-03T09:05:02.373Z,940.04
2018-06-03T09:06:02.390Z,940.03
2018-06-03T09:07:02.407Z,940.02
2018-06-03T09:08:02.423Z,940.02
2018-06-03T09:09:02.438Z,940.06
2018-06-03T09:10:02.454Z,940.03
2018-06-03T09:11:02.471Z,940.04
2018-06-03T09:12:02.487Z,940.00
2018-06-03T09:13:02.548Z,940.03
2018-06-03T09:14:02.521Z,939.99
2018-06-03T09:15:02.536Z,939.98
2018-06-03T09:16:02.553Z,939.98
2018-06-03T09:17:02.571Z,939.97
2018-06-03T09:18:02.586Z,939.93
2018-06-03T09:19:02.602Z,939.96
2018-06-03T09:20:02.620Z,939.98
2018-06-03T09:21:02.635Z,939.99
2018-06-03T09:22:02.652Z,939.95
2018-06-03T09:23:02.668Z,939.92
2018-06-03T09:24:02.684Z,939.93
2018-06-03T09:25:02.721Z,939.93
2018-06-03T09:26:02.717Z,939.92
2018-06-03T09:27:02.740Z,939.89
2018-06-03T09:28:02.760Z,939.93
2018-06-03T09:29:02.765Z,939.91
2018-06-03T09:30:02.782Z,939.90
2018-06-03T09:31:02.801Z,939.85
2018-06-03T09:32:02.814Z,939.83
2018-06-03T09:33:02.828Z,939.83
2018-06-03T09:34:03.075Z,939.85
2018-06-03T09:35:02.862Z,939.80
2018-06-03T09:36:02.881Z,939.75
2018-06-03T09:37:02.892Z,939.82
2018-06-03T09:38:02.910Z,939.81
2018-06-03T09:39:02.926Z,939.79
2018-06-03T09:40:02.941Z,939.75
2018-06-03T09:41:02.955Z,939.75
2018-06-03T09:42:02.976Z,939.74
2018-06-03T09:43:02.988Z,939.72
2018-06-03T09:44:03.003Z,939.68
2018-06-03T09:45:03.018Z,939.69
2018-06-03T09:46:03.036Z,939.73
2018-06-03T09:47:03.049Z,939.73
2018-06-03T09:48:03.110Z,939.69
2018-06-03T09:49:03.081Z,939.68
2018-06-03T09:50:03.097Z,939.66
2018-06-03T09:51:03.111Z,939.60
2018-06-03T09:52:03.129Z,939.65
2018-06-03T09:53:03.184Z,939.68
2018-06-03T09:54:03.157Z,939.66
2018-06-03T09:55:03.171Z,939.64
2018-06-03T09:56:03.189Z,939.59
2018-06-03T09:57:03.201Z,939.60
2018-06-03T09:58:03.216Z,939.61
2018-06-03T09:59:03.234Z,939.57
2018-06-03T10:00:03.246Z,939.57
2018-06-03T10:01:03.260Z,939.55
2018-06-03T10:02:03.276Z,939.53
2018-06-03T10:03:03.289Z,939.53
2018-06-03T10:04:03.306Z,939.52
2018-06-03T10:05:03.320Z,939.53
2018-06-03T10:06:03.334Z,939.53
2018-06-03T10:07:03.349Z,939.51
2018-06-03T10:08:03.367Z,939.46
2018-06-03T10:09:03.377Z,939.44
2018-06-03T10:10:03.397Z,939.46
2018-06-03T10:11:03.408Z,939.45
2018-06-03T10:12:03.424Z,939.48
2018-06-03T10:13:03.437Z,939.41
2018-06-03T10:14:03.453Z,939.41
2018-06-03T10:15:03.466Z,939.37
2018-06-03T10:16:03.497Z,939.37
2018-06-03T10:17:03.492Z,939.36
2018-06-03T10:18:03.505Z,939.35
2018-06-03T10:19:03.519Z,939.36
2018-06-03T10:20:03.533Z,939.34
2018-06-03T10:21:03.544Z,939.28
2018-06-03T10:22:03.559Z,939.32
2018-06-03T10:23:03.572Z,939.34
2018-06-03T10:24:03.583Z,939.28
2018-06-03T10:25:03.595Z,939.25
2018-06-03T10:26:03.610Z,939.25
2018-06-03T10:27:03.645Z,939.25
2018-06-03T10:28:03.633Z,939.26
2018-06-03T10:29:03.645Z,939.31
2018-06-03T10:30:03.658Z,939.25
2018-06-03T10:31:03.671Z,939.26
2018-06-03T10:32:03.685Z,939.20
2018-06-03T10:33:03.697Z,939.23
2018-06-03T10:34:03.714Z,939.21
2018-06-03T10:35:03.722Z,939.20
2018-06-03T10:36:03.736Z,939.22
2018-06-03T10:37:03.748Z,939.20
2018-06-03T10:38:03.762Z,939.22
2018-06-03T10:39:03.775Z,939.19
2018-06-03T10:40:03.789Z,939.19
2018-06-03T10:41:03.800Z,939.17
2018-06-03T10:42:03.815Z,939.15
2018-06-03T10:43:03.827Z,939.13
2018-06-03T10:44:03.840Z,939.11
2018-06-03T10:45:03.853Z,939.13
2018-06-03T10:46:03.866Z,939.12
2018-06-03T10:47:03.881Z,939.06
2018-06-03T10:48:03.895Z,939.07
2018-06-03T10:49:03.905Z,939.10
2018-06-03T10:50:03.920Z,939.09
2018-06-03T10:51:03.932Z,939.09
2018-06-03T10:52:03.945Z,939.09
2018-06-03T10:53:03.958Z,939.08
2018-06-03T10:54:03.975Z,939.05
2018-06-03T10:55:03.987Z,939.04
2018-06-03T10:56:03.999Z,939.04
2018-06-03T10:57:04.012Z,939.02
2018-06-03T10:58:04.025Z,939.05
2018-06-03T10:59:04.038Z,939.05
2018-06-03T11:00:04.052Z,939.02
2018-06-03T11:01:04.065Z,939.07
2018-06-03T11:02:04.077Z,939.03
2018-06-03T11:03:04.091Z,939.05
2018-06-03T11:04:04.104Z,939.06
2018-06-03T11:05:04.118Z,939.07
2018-06-03T11:06:04.132Z,939.05
2018-06-03T11:07:04.146Z,939.04
2018-06-03T11:08:04.159Z,939.01
2018-06-03T11:09:04.171Z,938.95
2018-06-03T11:10:04.185Z,938.96
2018-06-03T11:11:04.200Z,939.00
2018-06-03T11:12:04.216Z,938.97
2018-06-03T11:13:04.226Z,938.99
2018-06-03T11:14:04.239Z,938.94
2018-06-03T11:15:04.253Z,938.93
2018-06-03T11:16:04.265Z,938.95
2018-06-03T11:17:04.278Z,938.93
2018-06-03T11:18:04.292Z,938.98
2018-06-03T11:19:04.305Z,938.92
2018-06-03T11:20:04.319Z,938.95
2018-06-03T11:21:04.332Z,938.98
2018-06-03T11:22:04.345Z,938.95
2018-06-03T11:23:04.380Z,939.01
2018-06-03T11:24:04.371Z,938.97
2018-06-03T11:25:04.382Z,938.91
2018-06-03T11:26:04.395Z,938.92
2018-06-03T11:27:04.413Z,938.89
2018-06-03T11:28:04.423Z,938.87
2018-06-03T11:29:04.434Z,938.85
2018-06-03T11:30:04.448Z,938.85
2018-06-03T11:31:04.461Z,938.84
2018-06-03T11:32:04.475Z,938.84
2018-06-03T11:33:04.487Z,938.85
2018-06-03T11:34:04.499Z,938.81
2018-06-03T11:35:04.514Z,938.80
2018-06-03T11:36:04.527Z,938.85
2018-06-03T11:37:04.541Z,938.82
2018-06-03T11:38:04.558Z,938.81
2018-06-03T11:39:04.564Z,938.80
2018-06-03T11:40:04.581Z,938.79
2018-06-03T11:41:04.591Z,938.81
2018-06-03T11:42:04.647Z,938.79
2018-06-03T11:43:04.617Z,938.76
2018-06-03T11:44:04.629Z,938.72
2018-06-03T11:45:04.642Z,938.74
2018-06-03T11:46:04.655Z,938.73
2018-06-03T11:47:04.668Z,938.73
2018-06-03T11:48:04.701Z,938.72
2018-06-03T11:49:04.692Z,938.75
2018-06-03T11:50:04.706Z,938.72
2018-06-03T11:51:04.719Z,938.75
2018-06-03T11:52:04.731Z,938.72
2018-06-03T11:53:04.742Z,938.69
2018-06-03T11:54:04.755Z,938.73
2018-06-03T11:55:04.770Z,938.77
2018-06-03T11:56:04.787Z,938.71
2018-06-03T11:57:04.795Z,938.70
2018-06-03T11:58:04.826Z,938.68
2018-06-03T11:59:04.833Z,938.73
2018-06-03T12:00:04.833Z,938.68
2018-06-03T12:01:04.844Z,938.74
2018-06-03T12:02:04.857Z,938.69
2018-06-03T12:03:04.868Z,938.68
2018-06-03T12:04:04.883Z,938.67
2018-06-03T12:05:04.894Z,938.65
2018-06-03T12:06:04.911Z,938.66
2018-06-03T12:07:04.918Z,938.67
2018-06-03T12:08:04.930Z,938.66
2018-06-03T12:09:04.945Z,938.62
2018-06-03T12:10:04.955Z,938.63
2018-06-03T12:11:04.967Z,938.61
2018-06-03T12:12:04.977Z,938.63
2018-06-03T12:13:04.989Z,938.61
2018-06-03T12:14:05.001Z,938.56
2018-06-03T12:15:05.015Z,938.55
2018-06-03T12:16:05.025Z,938.53
2018-06-03T12:17:05.036Z,938.51
2018-06-03T12:18:05.053Z,938.49
2018-06-03T12:19:05.059Z,938.54
2018-06-03T12:20:05.070Z,938.52
2018-06-03T12:21:05.082Z,938.49
2018-06-03T12:22:05.093Z,938.49
2018-06-03T12:23:05.105Z,938.41
2018-06-03T12:24:05.116Z,938.40
2018-06-03T12:25:05.127Z,938.43
2018-06-03T12:26:05.138Z,938.43
2018-06-03T12:27:05.149Z,938.37
2018-06-03T12:28:05.163Z,938.36